KGLE/GLE METAR and TAF weather

Enter ICAO airport designator
Station Type Date Time Source
KGLE METAR 2020/01/19 14:35 UTC NOAA

KGLE 191435Z AUTO 00000KT 10SM CLR 00/M04 A3059 RMK AO2 T00031040


Station Type Date Time Source
KGLE Decoded METAR 2020/01/19 14:35 UTC NOAA

Gainesville, Gainesville Municipal Airport, TX, United States (KGLE) 33-39-05N 097-11-49W
Jan 19, 2020 - 09:35 AM EST / 2020.01.19 1435 UTC
Wind: Calm:0
Visibility: 10 mile(s):0
Sky conditions: clear
Temperature: 32.5 F (0.3 C)
Dew Point: 24.8 F (-4.0 C)
Relative Humidity: 72%
Pressure (altimeter): 30.59 in. Hg (1035 hPa)
ob: KGLE 191435Z AUTO 00000KT 10SM CLR 00/M04 A3059 RMK AO2 T00031040
cycle: 14

Station Type Date Time Source
KGLE TAF UTC NOAA

Error!

Example: see airport list